Time;durP1;ratioP1;P1;durP2;ratioP2;P2;SDS_P1;SDS_P2;PMS_P1;PMS_P2;Temp;Humidity;BMP_temperature;BMP_pressure;BME280_temperature;BME280_humidity;BME280_pressure;Samples;Min_cycle;Max_cycle;Signal;HPM_P1;HPM_P2
2021/06/26 00:02:53;;;;;;;28;24.7;;;;;;;18.58;100;98687.24;;;;
2021/06/26 00:12:53;;;;;;;28.8;23.3;;;;;;;18.63;100;98702.56;;;;
2021/06/26 00:22:53;;;;;;;23.6;21.2;;;;;;;18.54;100;98704.68;;;;
2021/06/26 00:32:53;;;;;;;36.9;26.6;;;;;;;18.52;100;98705.05;;;;
2021/06/26 00:42:53;;;;;;;36.6;26.9;;;;;;;18.32;100;98713.52;;;;
2021/06/26 00:52:53;;;;;;;25;21;;;;;;;18.27;100;98716.52;;;;
2021/06/26 01:02:53;;;;;;;28;25.1;;;;;;;18.4;100;98707.86;;;;
2021/06/26 01:12:53;;;;;;;26.7;23.5;;;;;;;18.19;100;98718.28;;;;
2021/06/26 01:22:55;;;;;;;27.5;21;;;;;;;18.24;100;98706.31;;;;
2021/06/26 01:32:53;;;;;;;24.4;21.8;;;;;;;18.05;100;98687.94;;;;
2021/06/26 01:42:54;;;;;;;22.2;19.8;;;;;;;18.21;100;98696.91;;;;
2021/06/26 01:52:53;;;;;;;23.5;20.3;;;;;;;18.2;100;98694.52;;;;
2021/06/26 02:12:52;;;;;;;24.2;20.5;;;;;;;17.99;100;98690.16;;;;
2021/06/26 02:22:52;;;;;;;26.4;19.1;;;;;;;17.88;100;98699.21;;;;
2021/06/26 02:32:52;;;;;;;22.7;20.3;;;;;;;18.05;100;98705.09;;;;
2021/06/26 02:42:52;;;;;;;23.9;20.2;;;;;;;18.14;100;98717.77;;;;
2021/06/26 02:52:52;;;;;;;21.4;17.9;;;;;;;18.16;100;98715.47;;;;
2021/06/26 03:02:52;;;;;;;29.5;18.3;;;;;;;18.2;100;98706.23;;;;
2021/06/26 03:12:52;;;;;;;24.2;16.7;;;;;;;18.06;100;98720.33;;;;
2021/06/26 03:22:52;;;;;;;20.3;17.2;;;;;;;18.18;100;98732.3;;;;
2021/06/26 03:32:52;;;;;;;26.7;18.5;;;;;;;18.24;100;98728.94;;;;
2021/06/26 03:42:51;;;;;;;22.2;20;;;;;;;18.22;100;98727.72;;;;
2021/06/26 03:52:51;;;;;;;24.5;21.8;;;;;;;18.3;100;98743.08;;;;
2021/06/26 04:02:51;;;;;;;21;18.6;;;;;;;18.4;100;98745.27;;;;
2021/06/26 04:12:51;;;;;;;20.1;18.1;;;;;;;18.63;100;98732.59;;;;
2021/06/26 04:22:51;;;;;;;18;15.1;;;;;;;18.69;100;98728.42;;;;
2021/06/26 04:32:51;;;;;;;16.8;14.5;;;;;;;18.98;100;98725.16;;;;
2021/06/26 04:42:52;;;;;;;16.3;14.7;;;;;;;19.09;100;98733.53;;;;
2021/06/26 04:52:51;;;;;;;18.1;12.8;;;;;;;19.45;100;98727.66;;;;
2021/06/26 05:02:52;;;;;;;15;12;;;;;;;19.86;100;98722.5;;;;
2021/06/26 05:12:52;;;;;;;13.3;10.9;;;;;;;20.08;100;98740.87;;;;
2021/06/26 05:22:52;;;;;;;13.8;10.1;;;;;;;20.06;100;98746.69;;;;
2021/06/26 05:32:52;;;;;;;10.7;8.3;;;;;;;20.27;100;98740;;;;
2021/06/26 05:42:53;;;;;;;9.6;6.8;;;;;;;20.5;100;98751.72;;;;
2021/06/26 05:52:53;;;;;;;10.3;8;;;;;;;20.73;100;98757.91;;;;
2021/06/26 06:02:53;;;;;;;14.4;8.3;;;;;;;20.58;100;98783.54;;;;
2021/06/26 06:12:53;;;;;;;11.8;10.6;;;;;;;20.77;100;98791.63;;;;
2021/06/26 06:22:54;;;;;;;12.4;11.1;;;;;;;20.74;100;98784.16;;;;
2021/06/26 06:32:54;;;;;;;12.2;8.3;;;;;;;21.1;100;98779.99;;;;
2021/06/26 06:42:55;;;;;;;11.4;7.9;;;;;;;21.45;100;98779.63;;;;
2021/06/26 06:52:56;;;;;;;18.8;8.7;;;;;;;22;100;98784.16;;;;
2021/06/26 07:02:56;;;;;;;8.6;6.9;;;;;;;22.45;100;98779.44;;;;
2021/06/26 07:12:56;;;;;;;9.7;6.4;;;;;;;22.28;100;98783.63;;;;
2021/06/26 07:22:57;;;;;;;8.3;6.4;;;;;;;22.52;100;98785.77;;;;
2021/06/26 07:32:58;;;;;;;9.2;6.9;;;;;;;22.62;100;98777.97;;;;
2021/06/26 07:42:58;;;;;;;10.4;8.5;;;;;;;22.54;100;98766.94;;;;
2021/06/26 07:52:59;;;;;;;14.3;12.8;;;;;;;22.05;100;98761.84;;;;
2021/06/26 08:03:00;;;;;;;15.3;11.7;;;;;;;22.22;100;98759.61;;;;
2021/06/26 08:13:00;;;;;;;16.3;12.9;;;;;;;22.44;100;98758.62;;;;
2021/06/26 08:23:01;;;;;;;12.6;9.5;;;;;;;22.92;100;98751.88;;;;
2021/06/26 08:33:01;;;;;;;17.3;11.2;;;;;;;23.02;100;98745.64;;;;
2021/06/26 08:43:02;;;;;;;28.3;13.8;;;;;;;23.18;100;98744.54;;;;
2021/06/26 08:53:02;;;;;;;25.4;10.1;;;;;;;23.37;100;98731.23;;;;
2021/06/26 09:03:03;;;;;;;137.7;68.3;;;;;;;23.41;100;98720.28;;;;
2021/06/26 09:13:04;;;;;;;11.4;9.5;;;;;;;23.73;100;98715.63;;;;
2021/06/26 09:23:05;;;;;;;24.1;13.1;;;;;;;23.56;100;98721.9;;;;
2021/06/26 09:33:05;;;;;;;16.4;13.2;;;;;;;23.98;100;98719.17;;;;
2021/06/26 09:43:06;;;;;;;12.6;10.4;;;;;;;23.78;100;98706.18;;;;
2021/06/26 09:53:07;;;;;;;11.4;7.7;;;;;;;24.25;100;98710.55;;;;
2021/06/26 10:03:07;;;;;;;11.3;8.6;;;;;;;24.57;100;98697.52;;;;
2021/06/26 10:13:08;;;;;;;14.2;9.3;;;;;;;24.95;100;98684.81;;;;
2021/06/26 10:23:09;;;;;;;11.5;9.9;;;;;;;26.26;100;98697.78;;;;
2021/06/26 10:33:10;;;;;;;15.6;11.1;;;;;;;25.15;100;98713.48;;;;
2021/06/26 10:43:11;;;;;;;16;10.5;;;;;;;22.65;100;98741.48;;;;
2021/06/26 10:53:12;;;;;;;16.7;12.2;;;;;;;20.69;100;98717.96;;;;
2021/06/26 11:03:12;;;;;;;13;7.8;;;;;;;20.36;100;98737.81;;;;
2021/06/26 11:13:12;;;;;;;8.4;7;;;;;;;20.16;100;98733.56;;;;
2021/06/26 11:23:12;;;;;;;7.6;6;;;;;;;20.64;100;98721.8;;;;
2021/06/26 11:33:13;;;;;;;7.1;5.7;;;;;;;20.94;100;98713.58;;;;
2021/06/26 11:43:13;;;;;;;9;7;;;;;;;21.29;100;98724.99;;;;
2021/06/26 11:53:13;;;;;;;8.2;5.9;;;;;;;22.05;100;98714.39;;;;
2021/06/26 12:03:13;;;;;;;11.5;7.8;;;;;;;22.06;100;98735.19;;;;
2021/06/26 12:13:14;;;;;;;10.2;7.7;;;;;;;22.57;100;98711.22;;;;
2021/06/26 12:23:14;;;;;;;7.8;6.1;;;;;;;23.49;100;98703.41;;;;
2021/06/26 12:33:15;;;;;;;9.5;7.6;;;;;;;23.51;100;98695.55;;;;
2021/06/26 12:43:15;;;;;;;8.3;6.1;;;;;;;24.18;100;98680.26;;;;
2021/06/26 12:53:16;;;;;;;10.1;7.3;;;;;;;24.69;100;98675.02;;;;
2021/06/26 13:03:17;;;;;;;12.2;8.3;;;;;;;25.59;100;98662.39;;;;
2021/06/26 13:13:20;;;;;;;10.3;6.3;;;;;;;25.12;100;98653.61;;;;
2021/06/26 13:23:19;;;;;;;8.1;4.9;;;;;;;25;100;98657.59;;;;
2021/06/26 13:33:20;;;;;;;6.6;4.5;;;;;;;24.76;100;98650.19;;;;
2021/06/26 13:43:21;;;;;;;8.1;5.6;;;;;;;23.85;100;98640.13;;;;
2021/06/26 13:53:22;;;;;;;9.9;4.7;;;;;;;23.2;100;98652.22;;;;
2021/06/26 14:03:22;;;;;;;7.4;4.3;;;;;;;20.5;100;98686.8;;;;
2021/06/26 14:13:23;;;;;;;8.8;4.5;;;;;;;19.24;100;98672.56;;;;
2021/06/26 14:23:23;;;;;;;6.3;4.6;;;;;;;19.78;100;98661.45;;;;
2021/06/26 14:33:23;;;;;;;8;6.1;;;;;;;20.05;100;98657.58;;;;
2021/06/26 14:43:23;;;;;;;12.6;9;;;;;;;20.34;100;98668.97;;;;
2021/06/26 14:53:23;;;;;;;11.4;6.1;;;;;;;20.79;100;98682.47;;;;
2021/06/26 15:03:23;;;;;;;11.7;6.2;;;;;;;21.62;100;98663.04;;;;
2021/06/26 15:13:24;;;;;;;8.4;5.2;;;;;;;22.98;100;98647.83;;;;
2021/06/26 15:23:24;;;;;;;6.8;4.4;;;;;;;23.31;100;98647.54;;;;
2021/06/26 15:33:25;;;;;;;7.7;5.3;;;;;;;22.99;100;98655.7;;;;
2021/06/26 15:43:25;;;;;;;7.6;6.1;;;;;;;22.24;100;98644.72;;;;
2021/06/26 15:53:26;;;;;;;9.6;5.1;;;;;;;22.33;100;98656.14;;;;
2021/06/26 16:03:26;;;;;;;7.7;5.4;;;;;;;22.75;100;98650.11;;;;
2021/06/26 16:13:27;;;;;;;7.9;6.1;;;;;;;22.6;100;98649.22;;;;
2021/06/26 16:23:27;;;;;;;9.2;6.2;;;;;;;22.36;100;98658.11;;;;
2021/06/26 16:33:28;;;;;;;11.8;5.9;;;;;;;22.13;100;98666.61;;;;
2021/06/26 16:43:28;;;;;;;7;3.3;;;;;;;20.37;100;98660.02;;;;
2021/06/26 16:53:29;;;;;;;5.6;4.1;;;;;;;19.64;100;98649.48;;;;
2021/06/26 17:03:29;;;;;;;7.2;4.7;;;;;;;19.23;100;98645.62;;;;
2021/06/26 17:13:29;;;;;;;11.3;8.7;;;;;;;19.2;100;98630.72;;;;
2021/06/26 17:23:29;;;;;;;11;8.7;;;;;;;19.46;100;98624.57;;;;
2021/06/26 17:33:29;;;;;;;6.5;4.4;;;;;;;19.44;100;98633.13;;;;
2021/06/26 17:43:29;;;;;;;6.5;4.3;;;;;;;22.17;100;98644.67;;;;
2021/06/26 17:53:29;;;;;;;11.1;6.5;;;;;;;22.47;100;98656.22;;;;
2021/06/26 18:03:30;;;;;;;5.4;3.7;;;;;;;21.84;100;98665.57;;;;
2021/06/26 18:13:30;;;;;;;8.9;4.6;;;;;;;21.15;100;98671.95;;;;
2021/06/26 18:23:32;;;;;;;9.7;6.4;;;;;;;20.24;100;98664.08;;;;
2021/06/26 18:33:32;;;;;;;12.2;7.4;;;;;;;19.68;100;98688.62;;;;
2021/06/26 18:43:32;;;;;;;14;6;;;;;;;19.33;100;98697.7;;;;
2021/06/26 18:53:32;;;;;;;8.6;5.5;;;;;;;18.91;100;98708.63;;;;
2021/06/26 19:03:34;;;;;;;13;8.5;;;;;;;18.38;100;98731.2;;;;
2021/06/26 19:13:34;;;;;;;17.3;9.6;;;;;;;18.19;100;98740.11;;;;
2021/06/26 19:23:33;;;;;;;15.7;10.1;;;;;;;17.83;100;98745.84;;;;
2021/06/26 19:33:34;;;;;;;12;8.9;;;;;;;17.43;100;98745.92;;;;
2021/06/26 19:43:31;;;;;;;9;8.1;;;;;;;17.3;100;98749.84;;;;
2021/06/26 19:53:30;;;;;;;12.6;9.6;;;;;;;17.11;100;98764.13;;;;
2021/06/26 20:03:30;;;;;;;16.5;8.5;;;;;;;17.06;100;98772.52;;;;
2021/06/26 20:13:30;;;;;;;18.2;9.3;;;;;;;16.9;100;98777.88;;;;
2021/06/26 20:23:30;;;;;;;13.3;10.4;;;;;;;16.91;100;98765.87;;;;
2021/06/26 20:33:29;;;;;;;11.4;9.8;;;;;;;16.74;100;98773.5;;;;
2021/06/26 20:43:29;;;;;;;11.8;9.5;;;;;;;16.94;100;98767.1;;;;
2021/06/26 20:53:29;;;;;;;9.4;7.5;;;;;;;16.76;100;98777.48;;;;
2021/06/26 21:03:28;;;;;;;11.9;9.2;;;;;;;16.9;100;98769.72;;;;
2021/06/26 21:13:28;;;;;;;10.3;7.7;;;;;;;16.87;100;98769.64;;;;
2021/06/26 21:23:28;;;;;;;9.5;6.4;;;;;;;16.82;100;98762.5;;;;
2021/06/26 21:33:28;;;;;;;10.2;8.2;;;;;;;16.85;100;98759.08;;;;
2021/06/26 21:43:27;;;;;;;11.7;8.2;;;;;;;16.9;100;98741.73;;;;
2021/06/26 21:53:27;;;;;;;9.3;7.1;;;;;;;16.89;100;98746.38;;;;
2021/06/26 22:03:26;;;;;;;10.7;7.3;;;;;;;16.8;100;98742.98;;;;
2021/06/26 22:13:26;;;;;;;11.5;9.1;;;;;;;16.67;100;98738.7;;;;
2021/06/26 22:23:26;;;;;;;12.3;9.3;;;;;;;16.23;100;98742.36;;;;
2021/06/26 22:33:25;;;;;;;11.7;9;;;;;;;16.16;100;98737.49;;;;
2021/06/26 22:43:25;;;;;;;12.2;8.3;;;;;;;16.14;100;98747.89;;;;
2021/06/26 22:53:24;;;;;;;10.1;8.7;;;;;;;16.14;100;98756.05;;;;
2021/06/26 23:03:24;;;;;;;9.7;8.3;;;;;;;16;100;98769.98;;;;
2021/06/26 23:13:23;;;;;;;14;8.3;;;;;;;15.86;100;98757.87;;;;
2021/06/26 23:23:23;;;;;;;10.6;8.1;;;;;;;15.75;100;98757.51;;;;
2021/06/26 23:33:22;;;;;;;12.5;8.7;;;;;;;15.47;100;98759.21;;;;
2021/06/26 23:43:22;;;;;;;13;8.7;;;;;;;15.55;100;98755.63;;;;
2021/06/26 23:53:21;;;;;;;9.9;8.6;;;;;;;15.52;100;98753.58;;;;
